sensor_id;sensor_type;location;lat;lon;timestamp;pressure;altitude;pressure_sealevel;temperature;humidity
62617;BME280;62539;51.190;6.808;2023-02-17T00:01:00;101775.44;;;21.98;46.13
62617;BME280;62539;51.190;6.808;2023-02-17T00:03:32;101779.22;;;21.91;46.37
62617;BME280;62539;51.190;6.808;2023-02-17T00:05:58;101774.13;;;21.85;46.21
62617;BME280;62539;51.190;6.808;2023-02-17T00:08:23;101775.19;;;21.79;46.61
62617;BME280;62539;51.190;6.808;2023-02-17T00:10:56;101771.88;;;21.72;46.59
62617;BME280;62539;51.190;6.808;2023-02-17T00:13:23;101776.44;;;21.67;46.52
62617;BME280;62539;51.190;6.808;2023-02-17T00:15:48;101762.50;;;21.62;46.90
62617;BME280;62539;51.190;6.808;2023-02-17T00:18:14;101761.81;;;21.55;47.21
62617;BME280;62539;51.190;6.808;2023-02-17T00:20:39;101761.06;;;21.52;46.88
62617;BME280;62539;51.190;6.808;2023-02-17T00:23:04;101762.06;;;21.48;46.95
62617;BME280;62539;51.190;6.808;2023-02-17T00:25:30;101759.63;;;21.41;47.22
62617;BME280;62539;51.190;6.808;2023-02-17T00:27:55;101757.97;;;21.37;47.41
62617;BME280;62539;51.190;6.808;2023-02-17T00:30:21;101761.63;;;21.33;47.42
62617;BME280;62539;51.190;6.808;2023-02-17T00:32:46;101760.00;;;21.29;47.33
62617;BME280;62539;51.190;6.808;2023-02-17T00:35:11;101761.91;;;21.24;47.42
62617;BME280;62539;51.190;6.808;2023-02-17T00:37:37;101758.50;;;21.20;47.50
62617;BME280;62539;51.190;6.808;2023-02-17T00:40:03;101757.72;;;21.17;47.78
62617;BME280;62539;51.190;6.808;2023-02-17T00:42:28;101750.88;;;21.11;47.75
62617;BME280;62539;51.190;6.808;2023-02-17T00:44:54;101753.59;;;21.08;47.81
62617;BME280;62539;51.190;6.808;2023-02-17T00:47:19;101756.38;;;21.03;48.03
62617;BME280;62539;51.190;6.808;2023-02-17T00:49:44;101754.72;;;20.99;47.97
62617;BME280;62539;51.190;6.808;2023-02-17T00:52:10;101758.31;;;20.96;48.11
62617;BME280;62539;51.190;6.808;2023-02-17T00:54:35;101752.31;;;20.91;48.17
62617;BME280;62539;51.190;6.808;2023-02-17T00:57:00;101757.69;;;20.88;48.20
62617;BME280;62539;51.190;6.808;2023-02-17T00:59:26;101752.53;;;20.83;48.37
62617;BME280;62539;51.190;6.808;2023-02-17T01:01:51;101746.50;;;20.80;48.60
62617;BME280;62539;51.190;6.808;2023-02-17T01:04:17;101745.66;;;20.76;48.47
62617;BME280;62539;51.190;6.808;2023-02-17T01:06:42;101744.91;;;20.73;48.52
62617;BME280;62539;51.190;6.808;2023-02-17T01:09:12;101738.00;;;20.68;48.76
62617;BME280;62539;51.190;6.808;2023-02-17T01:11:39;101738.94;;;20.66;48.70
62617;BME280;62539;51.190;6.808;2023-02-17T01:14:05;101739.91;;;20.62;48.67
62617;BME280;62539;51.190;6.808;2023-02-17T01:16:36;101731.25;;;20.58;48.70
62617;BME280;62539;51.190;6.808;2023-02-17T01:19:06;101736.59;;;20.55;48.91
62617;BME280;62539;51.190;6.808;2023-02-17T01:21:33;101731.44;;;20.50;48.90
62617;BME280;62539;51.190;6.808;2023-02-17T01:24:01;101731.53;;;20.47;49.04
62617;BME280;62539;51.190;6.808;2023-02-17T01:26:31;101727.25;;;20.43;49.27
62617;BME280;62539;51.190;6.808;2023-02-17T01:28:58;101716.78;;;20.40;49.19
62617;BME280;62539;51.190;6.808;2023-02-17T01:31:24;101716.88;;;20.37;49.39
62617;BME280;62539;51.190;6.808;2023-02-17T01:33:52;101713.41;;;20.35;49.45
62617;BME280;62539;51.190;6.808;2023-02-17T01:36:20;101710.91;;;20.30;49.55
62617;BME280;62539;51.190;6.808;2023-02-17T01:38:46;101705.72;;;20.27;49.36
62617;BME280;62539;51.190;6.808;2023-02-17T01:41:13;101714.53;;;20.26;49.38
62617;BME280;62539;51.190;6.808;2023-02-17T01:43:40;101703.19;;;20.22;49.71
62617;BME280;62539;51.190;6.808;2023-02-17T01:46:07;101698.03;;;20.19;49.54
62617;BME280;62539;51.190;6.808;2023-02-17T01:48:42;101694.56;;;20.17;49.63
62617;BME280;62539;51.190;6.808;2023-02-17T01:51:17;101698.16;;;20.15;49.66
62617;BME280;62539;51.190;6.808;2023-02-17T01:53:56;101698.19;;;20.13;49.85
62617;BME280;62539;51.190;6.808;2023-02-17T01:56:28;101700.91;;;20.10;49.69
62617;BME280;62539;51.190;6.808;2023-02-17T01:59:00;101693.94;;;20.07;49.79
62617;BME280;62539;51.190;6.808;2023-02-17T02:01:32;101688.72;;;20.06;49.82
62617;BME280;62539;51.190;6.808;2023-02-17T02:04:02;101685.31;;;20.02;50.07
62617;BME280;62539;51.190;6.808;2023-02-17T02:06:30;101682.69;;;20.01;50.10
62617;BME280;62539;51.190;6.808;2023-02-17T02:09:04;101684.50;;;19.98;50.10
62617;BME280;62539;51.190;6.808;2023-02-17T02:11:33;101681.06;;;19.96;50.14
62617;BME280;62539;51.190;6.808;2023-02-17T02:14:01;101678.47;;;19.95;50.10
62617;BME280;62539;51.190;6.808;2023-02-17T02:33:50;101660.72;;;19.67;50.55
62617;BME280;62539;51.190;6.808;2023-02-17T02:36:32;101667.72;;;19.66;50.46
62617;BME280;62539;51.190;6.808;2023-02-17T02:39:09;101663.41;;;19.64;50.64
62617;BME280;62539;51.190;6.808;2023-02-17T02:44:24;101664.34;;;19.61;50.82
62617;BME280;62539;51.190;6.808;2023-02-17T02:47:40;101656.50;;;19.60;50.93
62617;BME280;62539;51.190;6.808;2023-02-17T02:50:11;101657.34;;;19.60;50.92
62617;BME280;62539;51.190;6.808;2023-02-17T02:52:57;101654.78;;;19.57;51.09
62617;BME280;62539;51.190;6.808;2023-02-17T02:58:45;101652.22;;;19.56;50.91
62617;BME280;62539;51.190;6.808;2023-02-17T03:01:33;101643.44;;;19.55;50.86
62617;BME280;62539;51.190;6.808;2023-02-17T03:04:15;101638.19;;;19.55;50.96
62617;BME280;62539;51.190;6.808;2023-02-17T03:06:59;101633.88;;;19.52;50.81
62617;BME280;62539;51.190;6.808;2023-02-17T03:09:29;101627.72;;;19.52;50.88
62617;BME280;62539;51.190;6.808;2023-02-17T03:11:56;101636.50;;;19.52;51.06
62617;BME280;62539;51.190;6.808;2023-02-17T03:14:23;101631.25;;;19.51;50.98
62617;BME280;62539;51.190;6.808;2023-02-17T03:16:50;101633.03;;;19.50;50.97
62617;BME280;62539;51.190;6.808;2023-02-17T03:19:18;101631.31;;;19.49;50.98
62617;BME280;62539;51.190;6.808;2023-02-17T03:21:53;101633.94;;;19.49;50.87
62617;BME280;62539;51.190;6.808;2023-02-17T03:24:28;101627.84;;;19.47;51.04
62617;BME280;62539;51.190;6.808;2023-02-17T03:26:53;101626.97;;;19.47;51.00
62617;BME280;62539;51.190;6.808;2023-02-17T03:29:19;101634.88;;;19.47;50.99
62617;BME280;62539;51.190;6.808;2023-02-17T03:31:44;101622.63;;;19.46;51.03
62617;BME280;62539;51.190;6.808;2023-02-17T03:34:09;101627.03;;;19.45;51.07
62617;BME280;62539;51.190;6.808;2023-02-17T03:36:35;101616.53;;;19.44;51.02
62617;BME280;62539;51.190;6.808;2023-02-17T03:39:00;101620.06;;;19.43;51.12
62617;BME280;62539;51.190;6.808;2023-02-17T03:41:26;101616.59;;;19.41;51.13
62617;BME280;62539;51.190;6.808;2023-02-17T03:43:51;101626.22;;;19.42;51.06
62617;BME280;62539;51.190;6.808;2023-02-17T03:46:17;101621.03;;;19.40;50.96
62617;BME280;62539;51.190;6.808;2023-02-17T03:48:43;101620.13;;;19.39;51.09
62617;BME280;62539;51.190;6.808;2023-02-17T03:51:13;101624.56;;;19.39;50.98
62617;BME280;62539;51.190;6.808;2023-02-17T03:53:46;101621.94;;;19.37;51.09
62617;BME280;62539;51.190;6.808;2023-02-17T03:56:13;101624.56;;;19.37;51.08
62617;BME280;62539;51.190;6.808;2023-02-17T03:58:40;101617.59;;;19.36;51.01
62617;BME280;62539;51.190;6.808;2023-02-17T04:01:07;101621.13;;;19.35;51.08
62617;BME280;62539;51.190;6.808;2023-02-17T04:03:34;101624.66;;;19.34;51.09
62617;BME280;62539;51.190;6.808;2023-02-17T04:06:00;101629.91;;;19.34;51.03
62617;BME280;62539;51.190;6.808;2023-02-17T04:08:26;101622.91;;;19.33;51.12
62617;BME280;62539;51.190;6.808;2023-02-17T04:10:54;101621.19;;;19.32;51.04
62617;BME280;62539;51.190;6.808;2023-02-17T04:13:21;101625.59;;;19.32;51.17
62617;BME280;62539;51.190;6.808;2023-02-17T04:15:48;101629.13;;;19.31;51.16
62617;BME280;62539;51.190;6.808;2023-02-17T04:18:14;101628.25;;;19.30;51.16
62617;BME280;62539;51.190;6.808;2023-02-17T04:20:41;101627.41;;;19.30;51.11
62617;BME280;62539;51.190;6.808;2023-02-17T04:23:07;101632.66;;;19.30;51.21
62617;BME280;62539;51.190;6.808;2023-02-17T04:25:34;101630.06;;;19.28;51.22
62617;BME280;62539;51.190;6.808;2023-02-17T04:28:01;101636.22;;;19.27;51.22
62617;BME280;62539;51.190;6.808;2023-02-17T04:30:27;101636.22;;;19.27;51.23
62617;BME280;62539;51.190;6.808;2023-02-17T04:32:53;101641.47;;;19.27;51.26
62617;BME280;62539;51.190;6.808;2023-02-17T04:35:18;101636.19;;;19.29;51.05
62617;BME280;62539;51.190;6.808;2023-02-17T04:37:44;101631.63;;;19.37;51.33
62617;BME280;62539;51.190;6.808;2023-02-17T04:40:09;101633.94;;;19.49;50.94
62617;BME280;62539;51.190;6.808;2023-02-17T04:42:36;101637.84;;;19.69;50.70
62617;BME280;62539;51.190;6.808;2023-02-17T04:45:02;101629.41;;;19.91;50.14
62617;BME280;62539;51.190;6.808;2023-02-17T04:47:29;101631.41;;;20.14;49.65
62617;BME280;62539;51.190;6.808;2023-02-17T04:49:55;101629.97;;;20.35;49.24
62617;BME280;62539;51.190;6.808;2023-02-17T04:52:20;101638.09;;;20.58;48.74
62617;BME280;62539;51.190;6.808;2023-02-17T04:54:46;101634.91;;;20.76;48.24
62617;BME280;62539;51.190;6.808;2023-02-17T04:57:11;101630.94;;;20.93;47.92
62617;BME280;62539;51.190;6.808;2023-02-17T04:59:37;101641.19;;;21.02;47.73
62617;BME280;62539;51.190;6.808;2023-02-17T05:02:02;101626.91;;;21.09;47.18
62617;BME280;62539;51.190;6.808;2023-02-17T05:04:28;101625.88;;;21.15;47.22
62617;BME280;62539;51.190;6.808;2023-02-17T05:06:53;101626.63;;;21.19;46.97
62617;BME280;62539;51.190;6.808;2023-02-17T05:09:19;101641.44;;;21.23;46.96
62617;BME280;62539;51.190;6.808;2023-02-17T05:11:44;101648.25;;;21.30;46.75
62617;BME280;62539;51.190;6.808;2023-02-17T05:14:10;101637.38;;;21.39;46.68
62617;BME280;62539;51.190;6.808;2023-02-17T05:16:35;101642.28;;;21.50;46.32
62617;BME280;62539;51.190;6.808;2023-02-17T05:19:00;101633.16;;;21.61;46.08
62617;BME280;62539;51.190;6.808;2023-02-17T05:21:26;101632.84;;;21.71;45.87
62617;BME280;62539;51.190;6.808;2023-02-17T05:23:52;101626.44;;;21.79;45.86
62617;BME280;62539;51.190;6.808;2023-02-17T05:26:17;101627.13;;;21.84;45.63
62617;BME280;62539;51.190;6.808;2023-02-17T05:28:42;101619.19;;;21.84;45.44
62617;BME280;62539;51.190;6.808;2023-02-17T05:31:08;101617.41;;;21.84;45.32
62617;BME280;62539;51.190;6.808;2023-02-17T05:33:34;101616.56;;;21.84;45.18
62617;BME280;62539;51.190;6.808;2023-02-17T05:36:02;101614.03;;;21.81;45.34
62617;BME280;62539;51.190;6.808;2023-02-17T05:38:29;101625.53;;;21.78;45.58
62617;BME280;62539;51.190;6.808;2023-02-17T05:40:54;101611.59;;;21.75;45.67
62617;BME280;62539;51.190;6.808;2023-02-17T05:43:20;101611.75;;;21.70;45.68
62617;BME280;62539;51.190;6.808;2023-02-17T05:45:45;101612.75;;;21.66;45.76
62617;BME280;62539;51.190;6.808;2023-02-17T05:48:11;101612.91;;;21.61;45.69
62617;BME280;62539;51.190;6.808;2023-02-17T05:50:36;101614.72;;;21.59;45.99
62617;BME280;62539;51.190;6.808;2023-02-17T05:53:01;101604.06;;;21.62;45.67
62617;BME280;62539;51.190;6.808;2023-02-17T05:55:27;101598.59;;;21.68;45.76
62617;BME280;62539;51.190;6.808;2023-02-17T05:57:53;101604.50;;;21.77;45.68
62617;BME280;62539;51.190;6.808;2023-02-17T06:00:18;101602.38;;;21.86;45.38
62617;BME280;62539;51.190;6.808;2023-02-17T06:02:43;101609.94;;;21.97;45.28
62617;BME280;62539;51.190;6.808;2023-02-17T06:05:09;101614.88;;;22.07;45.18
62617;BME280;62539;51.190;6.808;2023-02-17T06:07:35;101621.72;;;22.12;45.00
62617;BME280;62539;51.190;6.808;2023-02-17T06:10:00;101619.03;;;22.14;44.67
62617;BME280;62539;51.190;6.808;2023-02-17T06:12:25;101625.13;;;22.16;44.70
62617;BME280;62539;51.190;6.808;2023-02-17T06:14:51;101619.84;;;22.16;44.62
62617;BME280;62539;51.190;6.808;2023-02-17T06:17:16;101626.94;;;22.14;44.67
62617;BME280;62539;51.190;6.808;2023-02-17T06:23:20;101603.53;;;22.03;44.70
62617;BME280;62539;51.190;6.808;2023-02-17T06:25:45;101596.72;;;21.97;44.94
62617;BME280;62539;51.190;6.808;2023-02-17T06:28:10;101603.13;;;21.90;44.92
62617;BME280;62539;51.190;6.808;2023-02-17T06:30:36;101602.44;;;21.85;45.19
62617;BME280;62539;51.190;6.808;2023-02-17T06:33:01;101602.47;;;21.83;45.12
62617;BME280;62539;51.190;6.808;2023-02-17T06:35:27;101594.50;;;21.85;45.41
62617;BME280;62539;51.190;6.808;2023-02-17T06:37:52;101603.13;;;21.90;45.15
62617;BME280;62539;51.190;6.808;2023-02-17T06:40:18;101598.34;;;22.01;45.44
62617;BME280;62539;51.190;6.808;2023-02-17T06:42:43;101605.94;;;22.11;45.33
62617;BME280;62539;51.190;6.808;2023-02-17T06:45:09;101618.69;;;22.23;45.16
62617;BME280;62539;51.190;6.808;2023-02-17T06:47:35;101609.63;;;22.30;45.42
62617;BME280;62539;51.190;6.808;2023-02-17T06:50:00;101612.16;;;22.34;44.77
62617;BME280;62539;51.190;6.808;2023-02-17T06:52:26;101608.59;;;22.35;45.31
62617;BME280;62539;51.190;6.808;2023-02-17T06:54:52;101608.59;;;22.35;45.21
62617;BME280;62539;51.190;6.808;2023-02-17T06:57:45;101607.88;;;22.29;45.50
62617;BME280;62539;51.190;6.808;2023-02-17T07:00:11;101615.00;;;22.27;45.62
62617;BME280;62539;51.190;6.808;2023-02-17T07:02:38;101607.31;;;22.21;45.47
62617;BME280;62539;51.190;6.808;2023-02-17T07:05:04;101604.91;;;22.15;45.42
62617;BME280;62539;51.190;6.808;2023-02-17T07:07:31;101614.78;;;22.10;45.47
62617;BME280;62539;51.190;6.808;2023-02-17T07:09:56;101615.00;;;22.03;45.44
62617;BME280;62539;51.190;6.808;2023-02-17T07:12:21;101598.34;;;22.01;45.84
62617;BME280;62539;51.190;6.808;2023-02-17T07:14:47;101586.84;;;22.02;46.11
62617;BME280;62539;51.190;6.808;2023-02-17T07:17:12;101599.03;;;22.07;46.04
62617;BME280;62539;51.190;6.808;2023-02-17T07:19:38;101600.41;;;22.17;46.19
62617;BME280;62539;51.190;6.808;2023-02-17T07:22:03;101610.53;;;22.29;45.99
62617;BME280;62539;51.190;6.808;2023-02-17T07:24:29;101605.72;;;22.41;45.85
62617;BME280;62539;51.190;6.808;2023-02-17T07:26:54;101614.28;;;22.48;45.29
62617;BME280;62539;51.190;6.808;2023-02-17T07:29:21;101615.88;;;22.52;45.34
62617;BME280;62539;51.190;6.808;2023-02-17T07:31:46;101613.22;;;22.53;45.64
62617;BME280;62539;51.190;6.808;2023-02-17T07:34:12;101620.34;;;22.51;45.51
62617;BME280;62539;51.190;6.808;2023-02-17T07:36:37;101615.16;;;22.48;45.59
62617;BME280;62539;51.190;6.808;2023-02-17T07:39:03;101611.72;;;22.46;45.83
62617;BME280;62539;51.190;6.808;2023-02-17T07:41:29;101613.53;;;22.44;45.95
62617;BME280;62539;51.190;6.808;2023-02-17T07:43:57;101616.31;;;22.39;45.84
62617;BME280;62539;51.190;6.808;2023-02-17T07:53:19;101614.53;;;22.16;46.55
62617;BME280;62539;51.190;6.808;2023-02-17T07:55:44;101611.78;;;22.19;46.40
62617;BME280;62539;51.190;6.808;2023-02-17T07:58:10;101614.22;;;22.25;46.31
62617;BME280;62539;51.190;6.808;2023-02-17T08:04:06;101621.63;;;22.39;45.94
62617;BME280;62539;51.190;6.808;2023-02-17T08:06:32;101617.19;;;22.40;46.00
62617;BME280;62539;51.190;6.808;2023-02-17T08:16:00;101624.00;;;22.47;46.18
62617;BME280;62539;51.190;6.808;2023-02-17T08:18:25;101621.41;;;22.45;46.44
62617;BME280;62539;51.190;6.808;2023-02-17T08:20:50;101621.50;;;22.42;46.63
62617;BME280;62539;51.190;6.808;2023-02-17T08:23:19;101619.84;;;22.40;46.50
62617;BME280;62539;51.190;6.808;2023-02-17T08:25:45;101619.03;;;22.38;46.82
62617;BME280;62539;51.190;6.808;2023-02-17T08:28:11;101629.66;;;22.36;46.59
62617;BME280;62539;51.190;6.808;2023-02-17T08:30:36;101628.84;;;22.34;46.63
62617;BME280;62539;51.190;6.808;2023-02-17T08:33:04;101617.53;;;22.30;46.94
62617;BME280;62539;51.190;6.808;2023-02-17T08:35:30;101622.06;;;22.27;47.10
62617;BME280;62539;51.190;6.808;2023-02-17T08:37:56;101617.88;;;22.21;47.23
62617;BME280;62539;51.190;6.808;2023-02-17T08:40:21;101615.38;;;22.16;47.58
62617;BME280;62539;51.190;6.808;2023-02-17T08:42:47;101614.53;;;22.16;47.45
62617;BME280;62539;51.190;6.808;2023-02-17T08:45:13;101611.78;;;22.19;47.73
62617;BME280;62539;51.190;6.808;2023-02-17T08:47:39;101620.31;;;22.27;47.89
62617;BME280;62539;51.190;6.808;2023-02-17T08:50:06;101614.59;;;22.38;47.67
62617;BME280;62539;51.190;6.808;2023-02-17T08:52:34;101597.47;;;22.50;47.04
62617;BME280;62539;51.190;6.808;2023-02-17T08:55:00;101604.84;;;22.64;46.86
62617;BME280;62539;51.190;6.808;2023-02-17T08:57:26;101601.84;;;22.73;46.39
62617;BME280;62539;51.190;6.808;2023-02-17T08:59:52;101608.56;;;22.82;46.38
62617;BME280;62539;51.190;6.808;2023-02-17T09:02:18;101617.09;;;22.89;46.53
62617;BME280;62539;51.190;6.808;2023-02-17T09:04:44;101616.94;;;22.94;45.95
62617;BME280;62539;51.190;6.808;2023-02-17T09:07:12;101613.38;;;22.95;46.03
62617;BME280;62539;51.190;6.808;2023-02-17T09:09:39;101615.09;;;22.96;46.25
62617;BME280;62539;51.190;6.808;2023-02-17T09:12:05;101609.84;;;22.94;45.91
62617;BME280;62539;51.190;6.808;2023-02-17T09:14:31;101618.78;;;22.92;45.52
62617;BME280;62539;51.190;6.808;2023-02-17T09:16:56;101613.63;;;22.88;45.46
62617;BME280;62539;51.190;6.808;2023-02-17T09:19:22;101610.16;;;22.86;45.54
62617;BME280;62539;51.190;6.808;2023-02-17T09:21:49;101611.13;;;22.84;45.59
62617;BME280;62539;51.190;6.808;2023-02-17T09:24:16;101608.69;;;22.79;45.67
62617;BME280;62539;51.190;6.808;2023-02-17T09:26:42;101622.84;;;22.78;45.71
62617;BME280;62539;51.190;6.808;2023-02-17T09:29:08;101630.00;;;22.74;45.79
62617;BME280;62539;51.190;6.808;2023-02-17T09:31:34;101627.50;;;22.71;45.56
62617;BME280;62539;51.190;6.808;2023-02-17T09:34:01;101617.91;;;22.69;45.81
62617;BME280;62539;51.190;6.808;2023-02-17T09:36:31;101635.63;;;22.67;45.67
62617;BME280;62539;51.190;6.808;2023-02-17T09:38:58;101626.19;;;22.59;45.80
62617;BME280;62539;51.190;6.808;2023-02-17T09:41:43;101636.09;;;22.54;45.63
62617;BME280;62539;51.190;6.808;2023-02-17T09:44:24;101638.88;;;22.50;45.82
62617;BME280;62539;51.190;6.808;2023-02-17T09:49:37;101636.44;;;22.45;45.98
62617;BME280;62539;51.190;6.808;2023-02-17T09:54:57;101637.69;;;22.58;46.51
62617;BME280;62539;51.190;6.808;2023-02-17T09:57:32;101633.66;;;22.72;46.28
62617;BME280;62539;51.190;6.808;2023-02-17T10:00:11;101633.22;;;22.83;46.04
62617;BME280;62539;51.190;6.808;2023-02-17T10:03:07;101637.06;;;22.98;45.69
62617;BME280;62539;51.190;6.808;2023-02-17T10:09:21;101652.88;;;23.22;45.30
62617;BME280;62539;51.190;6.808;2023-02-17T10:12:05;101636.91;;;23.25;45.09
62617;BME280;62539;51.190;6.808;2023-02-17T10:20:10;101636.91;;;23.25;44.85
62617;BME280;62539;51.190;6.808;2023-02-17T10:22:44;101649.09;;;23.29;45.27
62617;BME280;62539;51.190;6.808;2023-02-17T10:25:17;101629.53;;;23.33;45.14
62617;BME280;62539;51.190;6.808;2023-02-17T10:27:56;101635.78;;;23.30;44.96
62617;BME280;62539;51.190;6.808;2023-02-17T10:33:17;101647.38;;;23.28;44.53
62617;BME280;62539;51.190;6.808;2023-02-17T10:35:54;101649.22;;;23.26;44.53
62617;BME280;62539;51.190;6.808;2023-02-17T10:38:49;101627.25;;;23.24;44.78
62617;BME280;62539;51.190;6.808;2023-02-17T10:41:20;101639.69;;;23.20;45.26
62617;BME280;62539;51.190;6.808;2023-02-17T10:43:51;101647.84;;;23.15;45.09
62617;BME280;62539;51.190;6.808;2023-02-17T10:46:24;101658.59;;;23.11;45.14
62617;BME280;62539;51.190;6.808;2023-02-17T10:48:54;101656.06;;;23.08;45.51
62617;BME280;62539;51.190;6.808;2023-02-17T10:51:25;101653.38;;;23.09;45.70
62617;BME280;62539;51.190;6.808;2023-02-17T10:54:02;101652.34;;;23.13;45.27
62617;BME280;62539;51.190;6.808;2023-02-17T10:56:40;101653.00;;;23.18;45.21
62617;BME280;62539;51.190;6.808;2023-02-17T11:01:50;101639.44;;;23.28;45.52
62617;BME280;62539;51.190;6.808;2023-02-17T11:04:16;101634.06;;;23.29;44.92
62617;BME280;62539;51.190;6.808;2023-02-17T11:06:49;101653.34;;;23.33;44.91
62617;BME280;62539;51.190;6.808;2023-02-17T11:09:24;101629.25;;;23.39;44.92
62617;BME280;62539;51.190;6.808;2023-02-17T11:14:29;101635.34;;;23.41;44.51
62617;BME280;62539;51.190;6.808;2023-02-17T11:17:11;101628.25;;;23.42;44.56
62617;BME280;62539;51.190;6.808;2023-02-17T11:19:40;101638.81;;;23.43;44.56
62617;BME280;62539;51.190;6.808;2023-02-17T11:22:37;101628.34;;;23.40;44.89
62617;BME280;62539;51.190;6.808;2023-02-17T11:25:34;101621.38;;;23.38;44.62
62617;BME280;62539;51.190;6.808;2023-02-17T11:28:10;101622.13;;;23.41;44.79
62617;BME280;62539;51.190;6.808;2023-02-17T11:30:52;101609.81;;;23.40;44.72
62617;BME280;62539;51.190;6.808;2023-02-17T11:33:36;101599.09;;;23.43;44.36
62617;BME280;62539;51.190;6.808;2023-02-17T11:36:04;101594.50;;;23.47;43.93
62617;BME280;62539;51.190;6.808;2023-02-17T11:38:40;101589.56;;;23.60;43.97
62617;BME280;62539;51.190;6.808;2023-02-17T11:41:08;101573.25;;;23.69;43.77
62617;BME280;62539;51.190;6.808;2023-02-17T11:43:36;101589.06;;;23.71;43.69
62617;BME280;62539;51.190;6.808;2023-02-17T11:46:19;101593.53;;;23.70;43.30
62617;BME280;62539;51.190;6.808;2023-02-17T11:51:38;101592.34;;;23.77;43.10
62617;BME280;62539;51.190;6.808;2023-02-17T11:54:35;101601.56;;;23.88;43.20
62617;BME280;62539;51.190;6.808;2023-02-17T12:00:20;101611.09;;;23.92;41.33
62617;BME280;62539;51.190;6.808;2023-02-17T12:11:48;101596.09;;;23.08;41.96
62617;BME280;62539;51.190;6.808;2023-02-17T12:14:32;101585.00;;;22.98;42.55
62617;BME280;62539;51.190;6.808;2023-02-17T12:17:37;101571.41;;;22.85;42.84
62617;BME280;62539;51.190;6.808;2023-02-17T12:20:24;101591.09;;;22.78;42.89
62617;BME280;62539;51.190;6.808;2023-02-17T12:26:33;101565.25;;;22.63;43.41
62617;BME280;62539;51.190;6.808;2023-02-17T12:29:23;101559.31;;;22.56;43.61
62617;BME280;62539;51.190;6.808;2023-02-17T12:32:47;101567.44;;;22.51;43.92
62617;BME280;62539;51.190;6.808;2023-02-17T12:35:22;101570.78;;;22.56;44.23
62617;BME280;62539;51.190;6.808;2023-02-17T12:37:55;101567.09;;;22.60;44.13
62617;BME280;62539;51.190;6.808;2023-02-17T12:40:32;101579.16;;;22.68;44.00
62617;BME280;62539;51.190;6.808;2023-02-17T12:43:20;101578.00;;;22.75;44.11
62617;BME280;62539;51.190;6.808;2023-02-17T12:45:53;101569.81;;;22.81;44.53
62617;BME280;62539;51.190;6.808;2023-02-17T12:51:29;101567.84;;;22.86;44.39
62617;BME280;62539;51.190;6.808;2023-02-17T12:54:23;101574.84;;;22.87;44.77
62617;BME280;62539;51.190;6.808;2023-02-17T12:59:36;101547.03;;;22.99;44.47
62617;BME280;62539;51.190;6.808;2023-02-17T13:02:10;101547.91;;;23.00;44.82
62617;BME280;62539;51.190;6.808;2023-02-17T13:04:38;101540.88;;;22.99;44.70
62617;BME280;62539;51.190;6.808;2023-02-17T13:07:20;101551.38;;;23.00;44.60
62617;BME280;62539;51.190;6.808;2023-02-17T13:09:49;101551.47;;;22.99;44.74
62617;BME280;62539;51.190;6.808;2023-02-17T13:14:56;101562.31;;;22.93;44.90
62617;BME280;62539;51.190;6.808;2023-02-17T13:22:41;101571.41;;;22.85;45.41
62617;BME280;62539;51.190;6.808;2023-02-17T13:25:31;101574.31;;;22.79;45.30
62617;BME280;62539;51.190;6.808;2023-02-17T13:28:00;101576.16;;;22.77;45.67
62617;BME280;62539;51.190;6.808;2023-02-17T13:30:36;101578.91;;;22.74;46.01
62617;BME280;62539;51.190;6.808;2023-02-17T13:35:44;101575.72;;;22.66;45.93
62617;BME280;62539;51.190;6.808;2023-02-17T13:38:10;101591.69;;;22.63;46.08
62617;BME280;62539;51.190;6.808;2023-02-17T13:40:41;101587.38;;;22.60;46.38
62617;BME280;62539;51.190;6.808;2023-02-17T13:45:47;101575.03;;;22.60;46.44
62617;BME280;62539;51.190;6.808;2023-02-17T13:50:53;101582.72;;;22.67;46.55
62617;BME280;62539;51.190;6.808;2023-02-17T13:53:30;101572.03;;;22.70;46.51
62617;BME280;62539;51.190;6.808;2023-02-17T13:55:58;101574.00;;;22.65;46.22
62617;BME280;62539;51.190;6.808;2023-02-17T13:58:31;101574.84;;;22.65;46.57
62617;BME280;62539;51.190;6.808;2023-02-17T14:01:00;101580.25;;;22.62;46.23
62617;BME280;62539;51.190;6.808;2023-02-17T14:03:34;101575.94;;;22.59;46.11
62617;BME280;62539;51.190;6.808;2023-02-17T14:06:12;101591.94;;;22.56;46.45
62617;BME280;62539;51.190;6.808;2023-02-17T14:08:53;101590.34;;;22.52;46.22
62617;BME280;62539;51.190;6.808;2023-02-17T14:11:23;101595.63;;;22.52;46.72
62617;BME280;62539;51.190;6.808;2023-02-17T14:13:52;101602.75;;;22.50;46.52
62617;BME280;62539;51.190;6.808;2023-02-17T14:16:37;101614.34;;;22.46;46.76
62617;BME280;62539;51.190;6.808;2023-02-17T14:19:10;101614.41;;;22.44;47.05
62617;BME280;62539;51.190;6.808;2023-02-17T14:21:41;101623.28;;;22.42;47.03
62617;BME280;62539;51.190;6.808;2023-02-17T14:24:27;101633.22;;;22.35;46.96
62617;BME280;62539;51.190;6.808;2023-02-17T14:26:58;101626.28;;;22.32;46.85
62617;BME280;62539;51.190;6.808;2023-02-17T14:29:38;101641.44;;;22.27;46.90
62617;BME280;62539;51.190;6.808;2023-02-17T14:32:03;101638.09;;;22.22;46.92
62617;BME280;62539;51.190;6.808;2023-02-17T14:34:32;101634.81;;;22.15;46.94
62617;BME280;62539;51.190;6.808;2023-02-17T14:37:15;101639.41;;;22.10;47.12
62617;BME280;62539;51.190;6.808;2023-02-17T14:39:45;101638.66;;;22.07;47.22
62617;BME280;62539;51.190;6.808;2023-02-17T14:42:10;101649.34;;;22.03;47.61
62617;BME280;62539;51.190;6.808;2023-02-17T14:44:35;101659.03;;;22.03;47.46
62617;BME280;62539;51.190;6.808;2023-02-17T14:47:01;101659.00;;;22.05;47.58
62617;BME280;62539;51.190;6.808;2023-02-17T14:49:26;101655.44;;;22.06;47.77
62617;BME280;62539;51.190;6.808;2023-02-17T14:51:52;101655.44;;;22.06;47.53